sensor_id;sensor_type;location;lat;lon;timestamp;pressure;altitude;pressure_sealevel;temperature;humidity
70302;BME280;57706;56.326;43.882;2022-12-29T00:01:27;100427.06;;;-5.15;78.89
70302;BME280;57706;56.326;43.882;2022-12-29T00:03:52;100426.16;;;-5.14;78.41
70302;BME280;57706;56.326;43.882;2022-12-29T00:06:18;100424.38;;;-4.90;76.86
70302;BME280;57706;56.326;43.882;2022-12-29T00:08:44;100423.06;;;-5.22;77.88
70302;BME280;57706;56.326;43.882;2022-12-29T00:11:13;100422.66;;;-4.68;77.48
70302;BME280;57706;56.326;43.882;2022-12-29T00:13:39;100423.22;;;-5.05;77.18
70302;BME280;57706;56.326;43.882;2022-12-29T00:16:24;100421.63;;;-5.07;78.12
70302;BME280;57706;56.326;43.882;2022-12-29T00:18:50;100422.84;;;-5.16;78.32
70302;BME280;57706;56.326;43.882;2022-12-29T00:21:18;100417.81;;;-5.19;78.84
70302;BME280;57706;56.326;43.882;2022-12-29T00:24:03;100412.38;;;-4.89;77.63
70302;BME280;57706;56.326;43.882;2022-12-29T00:27:20;100417.81;;;-4.97;78.72
70302;BME280;57706;56.326;43.882;2022-12-29T00:29:58;100415.69;;;-5.08;78.67
70302;BME280;57706;56.326;43.882;2022-12-29T00:32:42;100410.94;;;-4.97;79.03
70302;BME280;57706;56.326;43.882;2022-12-29T00:35:31;100411.28;;;-4.84;78.35
70302;BME280;57706;56.326;43.882;2022-12-29T00:38:03;100410.56;;;-5.08;78.26
70302;BME280;57706;56.326;43.882;2022-12-29T00:40:49;100414.69;;;-4.62;77.66
70302;BME280;57706;56.326;43.882;2022-12-29T00:43:51;100423.91;;;-4.79;77.80
70302;BME280;57706;56.326;43.882;2022-12-29T00:46:37;100416.97;;;-4.98;77.97
70302;BME280;57706;56.326;43.882;2022-12-29T00:49:22;100415.91;;;-5.14;79.32
70302;BME280;57706;56.326;43.882;2022-12-29T00:52:14;100418.16;;;-5.51;80.31
70302;BME280;57706;56.326;43.882;2022-12-29T00:54:41;100416.53;;;-4.87;77.66
70302;BME280;57706;56.326;43.882;2022-12-29T00:57:09;100413.84;;;-4.84;77.83
70302;BME280;57706;56.326;43.882;2022-12-29T00:59:39;100413.69;;;-5.01;78.38
70302;BME280;57706;56.326;43.882;2022-12-29T01:02:06;100417.47;;;-5.32;79.48
70302;BME280;57706;56.326;43.882;2022-12-29T01:04:32;100413.69;;;-5.01;78.44
70302;BME280;57706;56.326;43.882;2022-12-29T01:06:58;100409.78;;;-5.32;80.53
70302;BME280;57706;56.326;43.882;2022-12-29T01:09:23;100415.50;;;-5.26;79.67
70302;BME280;57706;56.326;43.882;2022-12-29T01:12:09;100415.69;;;-5.08;79.40
70302;BME280;57706;56.326;43.882;2022-12-29T01:14:36;100412.69;;;-5.19;79.40
70302;BME280;57706;56.326;43.882;2022-12-29T01:17:02;100420.91;;;-5.11;79.10
70302;BME280;57706;56.326;43.882;2022-12-29T01:19:28;100419.41;;;-4.94;79.22
70302;BME280;57706;56.326;43.882;2022-12-29T01:21:55;100412.22;;;-5.07;80.71
70302;BME280;57706;56.326;43.882;2022-12-29T01:24:22;100416.38;;;-5.04;80.11
70302;BME280;57706;56.326;43.882;2022-12-29T01:26:48;100413.50;;;-4.97;79.25
70302;BME280;57706;56.326;43.882;2022-12-29T01:29:16;100413.88;;;-5.06;80.24
70302;BME280;57706;56.326;43.882;2022-12-29T01:31:45;100414.38;;;-5.18;80.10
70302;BME280;57706;56.326;43.882;2022-12-29T01:34:11;100420.31;;;-4.95;79.70
70302;BME280;57706;56.326;43.882;2022-12-29T01:36:37;100422.31;;;-5.25;79.93
70302;BME280;57706;56.326;43.882;2022-12-29T01:39:21;100429.75;;;-4.96;81.43
70302;BME280;57706;56.326;43.882;2022-12-29T01:41:47;100422.69;;;-5.13;80.41
70302;BME280;57706;56.326;43.882;2022-12-29T01:47:39;100416.50;;;-5.30;80.82
70302;BME280;57706;56.326;43.882;2022-12-29T01:50:29;100426.88;;;-4.67;79.33
70302;BME280;57706;56.326;43.882;2022-12-29T01:53:06;100431.59;;;-4.79;79.13
70302;BME280;57706;56.326;43.882;2022-12-29T01:55:38;100432.31;;;-4.75;79.06
70302;BME280;57706;56.326;43.882;2022-12-29T01:58:08;100433.44;;;-5.03;80.09
70302;BME280;57706;56.326;43.882;2022-12-29T02:00:37;100424.94;;;-4.83;78.83
70302;BME280;57706;56.326;43.882;2022-12-29T02:03:03;100417.00;;;-4.77;79.60
70302;BME280;57706;56.326;43.882;2022-12-29T02:08:02;100424.19;;;-4.85;79.34
70302;BME280;57706;56.326;43.882;2022-12-29T02:10:30;100429.03;;;-5.00;79.32
70302;BME280;57706;56.326;43.882;2022-12-29T02:12:57;100430.00;;;-5.25;80.13
70302;BME280;57706;56.326;43.882;2022-12-29T02:15:34;100434.56;;;-4.67;79.57
70302;BME280;57706;56.326;43.882;2022-12-29T02:21:17;100433.03;;;-4.72;79.97
70302;BME280;57706;56.326;43.882;2022-12-29T02:24:10;100429.13;;;-5.03;79.92
70302;BME280;57706;56.326;43.882;2022-12-29T02:35:54;100433.94;;;-4.52;79.13
70302;BME280;57706;56.326;43.882;2022-12-29T02:41:12;100425.81;;;-5.05;79.98
70302;BME280;57706;56.326;43.882;2022-12-29T02:43:50;100433.78;;;-4.70;80.19
70302;BME280;57706;56.326;43.882;2022-12-29T02:46:40;100426.47;;;-4.37;79.42
70302;BME280;57706;56.326;43.882;2022-12-29T02:49:50;100423.47;;;-4.68;78.95
70302;BME280;57706;56.326;43.882;2022-12-29T02:52:23;100424.25;;;-4.45;79.03
70302;BME280;57706;56.326;43.882;2022-12-29T02:54:53;100430.34;;;-4.48;78.82
70302;BME280;57706;56.326;43.882;2022-12-29T03:00:15;100433.97;;;-4.74;79.81
70302;BME280;57706;56.326;43.882;2022-12-29T03:10:48;100445.59;;;-4.45;80.14
70302;BME280;57706;56.326;43.882;2022-12-29T03:13:24;100448.44;;;-4.51;80.09
70302;BME280;57706;56.326;43.882;2022-12-29T03:16:21;100445.59;;;-4.45;79.69
70302;BME280;57706;56.326;43.882;2022-12-29T03:22:04;100438.16;;;-4.30;80.09
70302;BME280;57706;56.326;43.882;2022-12-29T03:25:21;100448.16;;;-4.24;79.14
70302;BME280;57706;56.326;43.882;2022-12-29T03:27:49;100449.38;;;-4.33;79.54
70302;BME280;57706;56.326;43.882;2022-12-29T03:30:18;100442.41;;;-4.50;79.58
70302;BME280;57706;56.326;43.882;2022-12-29T03:32:47;100448.56;;;-4.33;80.60
70302;BME280;57706;56.326;43.882;2022-12-29T03:35:17;100453.56;;;-4.51;80.40
70302;BME280;57706;56.326;43.882;2022-12-29T03:40:38;100454.47;;;-4.10;78.38
70302;BME280;57706;56.326;43.882;2022-12-29T03:43:06;100446.00;;;-4.33;79.33
70302;BME280;57706;56.326;43.882;2022-12-29T03:45:34;100451.88;;;-4.31;79.67
70302;BME280;57706;56.326;43.882;2022-12-29T03:48:00;100452.34;;;-4.42;80.68
70302;BME280;57706;56.326;43.882;2022-12-29T03:50:27;100456.13;;;-4.51;80.47
70302;BME280;57706;56.326;43.882;2022-12-29T03:52:53;100449.72;;;-4.40;80.72
70302;BME280;57706;56.326;43.882;2022-12-29T03:55:19;100455.25;;;-4.50;80.55
70302;BME280;57706;56.326;43.882;2022-12-29T03:57:45;100447.06;;;-4.60;81.25
70302;BME280;57706;56.326;43.882;2022-12-29T04:00:16;100458.13;;;-4.37;81.16
70302;BME280;57706;56.326;43.882;2022-12-29T04:02:44;100457.13;;;-4.13;81.27
70302;BME280;57706;56.326;43.882;2022-12-29T04:05:16;100470.41;;;-4.04;81.23
70302;BME280;57706;56.326;43.882;2022-12-29T04:07:42;100473.19;;;-4.08;79.28
70302;BME280;57706;56.326;43.882;2022-12-29T04:10:08;100469.91;;;-4.12;79.95
70302;BME280;57706;56.326;43.882;2022-12-29T04:12:34;100467.91;;;-4.05;80.45
70302;BME280;57706;56.326;43.882;2022-12-29T04:15:01;100476.63;;;-3.89;78.93
70302;BME280;57706;56.326;43.882;2022-12-29T04:17:28;100475.28;;;-3.97;79.28
70302;BME280;57706;56.326;43.882;2022-12-29T04:19:54;100481.00;;;-4.11;79.71
70302;BME280;57706;56.326;43.882;2022-12-29T04:22:40;100483.06;;;-4.20;80.02
70302;BME280;57706;56.326;43.882;2022-12-29T04:25:07;100478.56;;;-4.15;80.51
70302;BME280;57706;56.326;43.882;2022-12-29T04:27:33;100480.50;;;-3.99;79.83
70302;BME280;57706;56.326;43.882;2022-12-29T04:30:17;100486.97;;;-3.90;80.01
70302;BME280;57706;56.326;43.882;2022-12-29T04:33:00;100494.75;;;-3.92;80.19
70302;BME280;57706;56.326;43.882;2022-12-29T04:35:27;100487.09;;;-3.93;79.71
70302;BME280;57706;56.326;43.882;2022-12-29T04:37:53;100487.03;;;-3.92;79.91
70302;BME280;57706;56.326;43.882;2022-12-29T04:40:19;100491.78;;;-4.03;79.98
70302;BME280;57706;56.326;43.882;2022-12-29T04:43:04;100497.06;;;-4.06;80.30
70302;BME280;57706;56.326;43.882;2022-12-29T04:45:33;100501.78;;;-3.97;80.39
70302;BME280;57706;56.326;43.882;2022-12-29T04:48:07;100498.72;;;-4.05;79.76
70302;BME280;57706;56.326;43.882;2022-12-29T04:50:58;100500.66;;;-4.10;80.29
70302;BME280;57706;56.326;43.882;2022-12-29T04:53:27;100503.16;;;-4.09;80.72
70302;BME280;57706;56.326;43.882;2022-12-29T04:55:53;100504.56;;;-4.02;80.54
70302;BME280;57706;56.326;43.882;2022-12-29T04:58:20;100505.53;;;-4.04;80.11
70302;BME280;57706;56.326;43.882;2022-12-29T05:00:47;100505.25;;;-3.98;80.63
70302;BME280;57706;56.326;43.882;2022-12-29T05:03:13;100513.88;;;-3.99;80.68
70302;BME280;57706;56.326;43.882;2022-12-29T05:05:41;100507.44;;;-3.89;80.40
70302;BME280;57706;56.326;43.882;2022-12-29T05:08:07;100512.28;;;-4.22;80.10
70302;BME280;57706;56.326;43.882;2022-12-29T05:10:32;100516.06;;;-4.10;80.63
70302;BME280;57706;56.326;43.882;2022-12-29T05:13:03;100513.34;;;-3.87;79.51
70302;BME280;57706;56.326;43.882;2022-12-29T05:15:29;100518.88;;;-3.96;79.59
70302;BME280;57706;56.326;43.882;2022-12-29T05:17:55;100521.06;;;-4.07;80.48
70302;BME280;57706;56.326;43.882;2022-12-29T05:20:21;100532.09;;;-4.05;80.53
70302;BME280;57706;56.326;43.882;2022-12-29T05:22:47;100523.78;;;-4.10;80.94
70302;BME280;57706;56.326;43.882;2022-12-29T05:25:13;100533.88;;;-4.28;80.82
70302;BME280;57706;56.326;43.882;2022-12-29T05:28:06;100530.56;;;-4.30;81.40
70302;BME280;57706;56.326;43.882;2022-12-29T05:30:52;100529.53;;;-4.26;81.28
70302;BME280;57706;56.326;43.882;2022-12-29T05:33:19;100530.63;;;-4.32;81.10
70302;BME280;57706;56.326;43.882;2022-12-29T05:35:47;100531.78;;;-4.18;81.46
70302;BME280;57706;56.326;43.882;2022-12-29T05:38:13;100535.00;;;-4.13;81.37
70302;BME280;57706;56.326;43.882;2022-12-29T05:40:39;100539.63;;;-4.21;80.66
70302;BME280;57706;56.326;43.882;2022-12-29T05:43:14;100533.16;;;-4.09;81.60
70302;BME280;57706;56.326;43.882;2022-12-29T05:46:13;100549.44;;;-3.90;80.08
70302;BME280;57706;56.326;43.882;2022-12-29T05:48:55;100543.72;;;-3.96;80.40
70302;BME280;57706;56.326;43.882;2022-12-29T05:51:28;100549.28;;;-3.87;79.86
70302;BME280;57706;56.326;43.882;2022-12-29T05:53:54;100557.09;;;-3.88;79.85
70302;BME280;57706;56.326;43.882;2022-12-29T05:56:21;100558.44;;;-4.00;80.15
70302;BME280;57706;56.326;43.882;2022-12-29T05:58:53;100567.03;;;-4.01;79.76
70302;BME280;57706;56.326;43.882;2022-12-29T06:01:20;100574.41;;;-3.93;80.37
70302;BME280;57706;56.326;43.882;2022-12-29T06:03:47;100562.47;;;-3.94;80.07
70302;BME280;57706;56.326;43.882;2022-12-29T06:06:31;100561.75;;;-3.98;79.74
70302;BME280;57706;56.326;43.882;2022-12-29T06:08:57;100570.03;;;-3.91;79.76
70302;BME280;57706;56.326;43.882;2022-12-29T06:11:23;100566.41;;;-3.85;80.09
70302;BME280;57706;56.326;43.882;2022-12-29T06:13:53;100575.44;;;-3.97;79.68
70302;BME280;57706;56.326;43.882;2022-12-29T06:16:19;100576.66;;;-3.85;80.43
70302;BME280;57706;56.326;43.882;2022-12-29T06:18:45;100574.00;;;-3.84;79.38
70302;BME280;57706;56.326;43.882;2022-12-29T06:21:12;100575.22;;;-3.72;79.94
70302;BME280;57706;56.326;43.882;2022-12-29T06:23:37;100575.13;;;-3.69;79.91
70302;BME280;57706;56.326;43.882;2022-12-29T06:26:04;100579.22;;;-3.65;78.99
70302;BME280;57706;56.326;43.882;2022-12-29T06:28:30;100567.72;;;-3.56;79.20
70302;BME280;57706;56.326;43.882;2022-12-29T06:30:56;100573.41;;;-3.49;78.97
70302;BME280;57706;56.326;43.882;2022-12-29T06:33:22;100573.56;;;-3.52;77.54
70302;BME280;57706;56.326;43.882;2022-12-29T06:35:49;100568.41;;;-3.52;78.36
70302;BME280;57706;56.326;43.882;2022-12-29T06:38:15;100581.75;;;-3.44;78.03
70302;BME280;57706;56.326;43.882;2022-12-29T06:40:42;100577.50;;;-3.45;77.75
70302;BME280;57706;56.326;43.882;2022-12-29T06:43:19;100575.16;;;-3.91;77.56
70302;BME280;57706;56.326;43.882;2022-12-29T06:46:04;100574.88;;;-3.83;78.93
70302;BME280;57706;56.326;43.882;2022-12-29T06:48:30;100583.59;;;-3.88;78.37
70302;BME280;57706;56.326;43.882;2022-12-29T06:50:56;100576.78;;;-3.89;77.87
70302;BME280;57706;56.326;43.882;2022-12-29T06:53:21;100577.09;;;-3.76;77.61
70302;BME280;57706;56.326;43.882;2022-12-29T06:55:47;100582.06;;;-3.92;77.90
70302;BME280;57706;56.326;43.882;2022-12-29T06:58:13;100590.00;;;-3.98;77.75
70302;BME280;57706;56.326;43.882;2022-12-29T07:00:39;100583.47;;;-3.84;78.14
70302;BME280;57706;56.326;43.882;2022-12-29T07:03:05;100577.34;;;-4.03;78.27
70302;BME280;57706;56.326;43.882;2022-12-29T07:05:30;100583.19;;;-3.78;77.73
70302;BME280;57706;56.326;43.882;2022-12-29T07:07:58;100578.53;;;-3.49;76.79
70302;BME280;57706;56.326;43.882;2022-12-29T07:10:43;100585.56;;;-3.53;76.70
70302;BME280;57706;56.326;43.882;2022-12-29T07:13:08;100578.81;;;-3.55;76.57
70302;BME280;57706;56.326;43.882;2022-12-29T07:15:36;100583.88;;;-3.54;76.78
70302;BME280;57706;56.326;43.882;2022-12-29T07:18:03;100584.53;;;-3.29;75.64
70302;BME280;57706;56.326;43.882;2022-12-29T07:20:29;100587.78;;;-3.45;76.00
70302;BME280;57706;56.326;43.882;2022-12-29T07:22:55;100578.22;;;-3.22;76.50
70302;BME280;57706;56.326;43.882;2022-12-29T07:25:21;100577.94;;;-3.75;76.24
70302;BME280;57706;56.326;43.882;2022-12-29T07:27:47;100581.63;;;-3.41;76.71
70302;BME280;57706;56.326;43.882;2022-12-29T07:30:14;100581.22;;;-3.32;76.31
70302;BME280;57706;56.326;43.882;2022-12-29T07:32:40;100580.94;;;-3.06;75.58
70302;BME280;57706;56.326;43.882;2022-12-29T07:35:06;100577.44;;;-3.43;75.48
70302;BME280;57706;56.326;43.882;2022-12-29T07:37:33;100586.84;;;-3.23;75.78
70302;BME280;57706;56.326;43.882;2022-12-29T07:40:00;100583.72;;;-3.11;75.43
70302;BME280;57706;56.326;43.882;2022-12-29T07:42:45;100577.25;;;-3.00;73.63
70302;BME280;57706;56.326;43.882;2022-12-29T07:45:12;100585.66;;;-3.16;74.27
70302;BME280;57706;56.326;43.882;2022-12-29T07:47:51;100574.25;;;-3.10;74.78
70302;BME280;57706;56.326;43.882;2022-12-29T07:50:17;100568.56;;;-3.17;74.54
70302;BME280;57706;56.326;43.882;2022-12-29T07:52:43;100578.97;;;-3.20;74.69
70302;BME280;57706;56.326;43.882;2022-12-29T07:55:10;100576.63;;;-3.06;74.61
70302;BME280;57706;56.326;43.882;2022-12-29T07:57:36;100579.78;;;-2.62;74.97
70302;BME280;57706;56.326;43.882;2022-12-29T08:00:03;100573.00;;;-2.45;73.32
70302;BME280;57706;56.326;43.882;2022-12-29T08:02:37;100568.22;;;-2.53;73.60
70302;BME280;57706;56.326;43.882;2022-12-29T08:05:03;100572.00;;;-2.43;72.93
70302;BME280;57706;56.326;43.882;2022-12-29T08:07:29;100572.22;;;-2.47;73.40
70302;BME280;57706;56.326;43.882;2022-12-29T08:09:55;100578.41;;;-2.69;73.92
70302;BME280;57706;56.326;43.882;2022-12-29T08:12:21;100576.81;;;-2.35;73.50
70302;BME280;57706;56.326;43.882;2022-12-29T08:14:47;100574.91;;;-2.49;71.54
70302;BME280;57706;56.326;43.882;2022-12-29T08:17:13;100581.88;;;-2.70;73.50
70302;BME280;57706;56.326;43.882;2022-12-29T08:19:38;100591.75;;;-2.61;72.99
70302;BME280;57706;56.326;43.882;2022-12-29T08:22:04;100587.56;;;-2.44;73.06
70302;BME280;57706;56.326;43.882;2022-12-29T08:24:30;100586.66;;;-2.26;71.99
70302;BME280;57706;56.326;43.882;2022-12-29T08:26:56;100582.09;;;-2.21;72.67
70302;BME280;57706;56.326;43.882;2022-12-29T08:29:22;100587.28;;;-2.03;71.55
70302;BME280;57706;56.326;43.882;2022-12-29T08:32:06;100596.25;;;-1.76;70.42
70302;BME280;57706;56.326;43.882;2022-12-29T08:34:32;100589.69;;;-2.17;72.44
70302;BME280;57706;56.326;43.882;2022-12-29T08:36:58;100592.13;;;-2.51;72.61
70302;BME280;57706;56.326;43.882;2022-12-29T08:39:24;100590.66;;;-2.20;72.91
70302;BME280;57706;56.326;43.882;2022-12-29T08:41:50;100591.44;;;-2.55;73.05
70302;BME280;57706;56.326;43.882;2022-12-29T08:44:16;100598.88;;;-2.85;72.75
70302;BME280;57706;56.326;43.882;2022-12-29T08:46:42;100597.31;;;-2.70;73.14
70302;BME280;57706;56.326;43.882;2022-12-29T08:49:07;100594.09;;;-2.93;74.69
70302;BME280;57706;56.326;43.882;2022-12-29T08:51:34;100595.81;;;-2.74;74.17
70302;BME280;57706;56.326;43.882;2022-12-29T08:54:00;100591.69;;;-2.79;74.23
70302;BME280;57706;56.326;43.882;2022-12-29T08:56:26;100600.25;;;-2.78;73.85
70302;BME280;57706;56.326;43.882;2022-12-29T08:58:55;100602.63;;;-2.73;73.76
70302;BME280;57706;56.326;43.882;2022-12-29T09:01:22;100604.72;;;-2.45;75.06
70302;BME280;57706;56.326;43.882;2022-12-29T09:03:47;100603.78;;;-2.25;74.02
70302;BME280;57706;56.326;43.882;2022-12-29T09:06:14;100598.22;;;-2.17;74.58
70302;BME280;57706;56.326;43.882;2022-12-29T09:08:41;100605.28;;;-2.21;73.73
70302;BME280;57706;56.326;43.882;2022-12-29T09:11:18;100603.38;;;-2.35;73.69
70302;BME280;57706;56.326;43.882;2022-12-29T09:13:45;100607.84;;;-2.21;72.72
70302;BME280;57706;56.326;43.882;2022-12-29T09:16:11;100602.22;;;-2.29;72.81
70302;BME280;57706;56.326;43.882;2022-12-29T09:18:38;100613.22;;;-2.62;73.33
70302;BME280;57706;56.326;43.882;2022-12-29T09:21:05;100603.88;;;-2.45;74.15
70302;BME280;57706;56.326;43.882;2022-12-29T09:23:32;100599.06;;;-2.34;72.80
70302;BME280;57706;56.326;43.882;2022-12-29T09:25:59;100605.72;;;-2.67;73.99
70302;BME280;57706;56.326;43.882;2022-12-29T09:28:25;100604.56;;;-2.79;74.30
70302;BME280;57706;56.326;43.882;2022-12-29T09:30:51;100607.47;;;-2.67;75.84
70302;BME280;57706;56.326;43.882;2022-12-29T09:33:18;100601.06;;;-2.58;74.95
70302;BME280;57706;56.326;43.882;2022-12-29T09:35:45;100610.28;;;-2.72;75.67
70302;BME280;57706;56.326;43.882;2022-12-29T09:38:15;100607.22;;;-2.80;75.45
70302;BME280;57706;56.326;43.882;2022-12-29T09:40:44;100606.09;;;-2.74;74.43
70302;BME280;57706;56.326;43.882;2022-12-29T09:45:43;100604.16;;;-2.69;76.08
70302;BME280;57706;56.326;43.882;2022-12-29T09:48:16;100608.56;;;-2.54;75.36
70302;BME280;57706;56.326;43.882;2022-12-29T09:50:48;100612.44;;;-2.45;74.83
70302;BME280;57706;56.326;43.882;2022-12-29T09:55:50;100612.53;;;-2.29;74.52
70302;BME280;57706;56.326;43.882;2022-12-29T09:58:20;100611.78;;;-2.13;74.35
70302;BME280;57706;56.326;43.882;2022-12-29T10:00:54;100605.31;;;-2.03;74.54
70302;BME280;57706;56.326;43.882;2022-12-29T10:03:24;100609.09;;;-1.92;73.03
70302;BME280;57706;56.326;43.882;2022-12-29T10:08:49;100611.28;;;-2.02;72.63
70302;BME280;57706;56.326;43.882;2022-12-29T10:11:54;100610.75;;;-1.91;72.49
70302;BME280;57706;56.326;43.882;2022-12-29T10:25:19;100627.63;;;-2.58;73.72
70302;BME280;57706;56.326;43.882;2022-12-29T10:27:50;100622.56;;;-2.79;74.61
70302;BME280;57706;56.326;43.882;2022-12-29T10:30:17;100623.88;;;-2.51;75.18
70302;BME280;57706;56.326;43.882;2022-12-29T10:35:22;100632.88;;;-2.42;74.96
70302;BME280;57706;56.326;43.882;2022-12-29T10:38:05;100635.56;;;-2.43;75.20
70302;BME280;57706;56.326;43.882;2022-12-29T10:43:50;100628.19;;;-2.70;75.50
70302;BME280;57706;56.326;43.882;2022-12-29T10:46:37;100624.84;;;-2.53;75.66
70302;BME280;57706;56.326;43.882;2022-12-29T10:49:06;100631.13;;;-2.59;74.75
70302;BME280;57706;56.326;43.882;2022-12-29T10:51:41;100643.78;;;-2.17;74.83
70302;BME280;57706;56.326;43.882;2022-12-29T10:56:50;100648.75;;;-2.32;73.99
70302;BME280;57706;56.326;43.882;2022-12-29T10:59:22;100649.97;;;-2.22;74.73
70302;BME280;57706;56.326;43.882;2022-12-29T11:06:52;100639.34;;;-2.70;75.16
70302;BME280;57706;56.326;43.882;2022-12-29T11:09:34;100644.47;;;-2.70;75.00
70302;BME280;57706;56.326;43.882;2022-12-29T11:12:00;100645.59;;;-2.75;75.14
70302;BME280;57706;56.326;43.882;2022-12-29T11:14:28;100640.34;;;-2.55;75.54
70302;BME280;57706;56.326;43.882;2022-12-29T11:17:03;100645.69;;;-2.40;74.34
70302;BME280;57706;56.326;43.882;2022-12-29T11:19:48;100645.91;;;-2.45;74.91
70302;BME280;57706;56.326;43.882;2022-12-29T11:24:51;100647.69;;;-2.84;75.69
70302;BME280;57706;56.326;43.882;2022-12-29T11:27:23;100652.25;;;-2.71;75.97
70302;BME280;57706;56.326;43.882;2022-12-29T11:29:53;100651.97;;;-2.65;74.54
70302;BME280;57706;56.326;43.882;2022-12-29T11:35:05;100644.47;;;-2.51;74.95
70302;BME280;57706;56.326;43.882;2022-12-29T11:37:36;100650.66;;;-2.55;75.06
70302;BME280;57706;56.326;43.882;2022-12-29T11:40:16;100658.78;;;-2.45;74.12
70302;BME280;57706;56.326;43.882;2022-12-29T11:42:52;100662.97;;;-2.42;74.63
70302;BME280;57706;56.326;43.882;2022-12-29T11:45:23;100662.13;;;-2.62;74.85
70302;BME280;57706;56.326;43.882;2022-12-29T11:47:59;100669.50;;;-2.73;74.49
70302;BME280;57706;56.326;43.882;2022-12-29T11:50:34;100663.38;;;-2.90;75.00
70302;BME280;57706;56.326;43.882;2022-12-29T11:53:05;100674.81;;;-2.77;75.14
70302;BME280;57706;56.326;43.882;2022-12-29T11:55:32;100668.44;;;-3.08;75.55
70302;BME280;57706;56.326;43.882;2022-12-29T11:58:00;100674.09;;;-2.99;75.53
70302;BME280;57706;56.326;43.882;2022-12-29T12:00:30;100672.28;;;-2.97;75.64
70302;BME280;57706;56.326;43.882;2022-12-29T12:02:58;100673.25;;;-3.00;75.51
70302;BME280;57706;56.326;43.882;2022-12-29T12:05:40;100670.94;;;-3.25;75.71
70302;BME280;57706;56.326;43.882;2022-12-29T12:08:09;100681.31;;;-3.08;75.36
70302;BME280;57706;56.326;43.882;2022-12-29T12:10:43;100680.75;;;-3.14;75.99
70302;BME280;57706;56.326;43.882;2022-12-29T12:13:30;100690.34;;;-3.18;74.94
70302;BME280;57706;56.326;43.882;2022-12-29T12:16:05;100687.38;;;-3.29;75.74
70302;BME280;57706;56.326;43.882;2022-12-29T12:21:43;100700.88;;;-3.45;75.98
70302;BME280;57706;56.326;43.882;2022-12-29T12:29:34;100701.66;;;-3.43;75.62
70302;BME280;57706;56.326;43.882;2022-12-29T12:34:43;100702.63;;;-3.46;75.80
70302;BME280;57706;56.326;43.882;2022-12-29T12:37:39;100704.75;;;-3.35;75.32
70302;BME280;57706;56.326;43.882;2022-12-29T12:46:17;100718.63;;;-3.60;76.22
70302;BME280;57706;56.326;43.882;2022-12-29T12:51:46;100721.66;;;-3.72;76.04
70302;BME280;57706;56.326;43.882;2022-12-29T12:57:42;100719.91;;;-3.49;75.76
70302;BME280;57706;56.326;43.882;2022-12-29T13:00:18;100730.22;;;-3.51;75.96
70302;BME280;57706;56.326;43.882;2022-12-29T13:30:08;100738.06;;;-3.33;76.47
70302;BME280;57706;56.326;43.882;2022-12-29T13:38:12;100747.00;;;-3.21;75.64
70302;BME280;57706;56.326;43.882;2022-12-29T13:40:42;100749.47;;;-3.39;75.94
70302;BME280;57706;56.326;43.882;2022-12-29T13:43:12;100752.53;;;-3.30;76.01
70302;BME280;57706;56.326;43.882;2022-12-29T13:45:39;100754.72;;;-3.21;76.50
70302;BME280;57706;56.326;43.882;2022-12-29T13:48:34;100758.00;;;-3.18;75.70
70302;BME280;57706;56.326;43.882;2022-12-29T13:51:03;100757.25;;;-3.20;76.17
70302;BME280;57706;56.326;43.882;2022-12-29T13:56:38;100757.00;;;-3.13;76.26
70302;BME280;57706;56.326;43.882;2022-12-29T13:59:17;100759.47;;;-3.12;76.28
70302;BME280;57706;56.326;43.882;2022-12-29T14:01:59;100755.78;;;-3.25;75.79
70302;BME280;57706;56.326;43.882;2022-12-29T14:04:30;100759.75;;;-3.39;75.81
70302;BME280;57706;56.326;43.882;2022-12-29T14:07:12;100763.78;;;-3.33;76.14
70302;BME280;57706;56.326;43.882;2022-12-29T14:12:20;100766.63;;;-3.39;77.19
70302;BME280;57706;56.326;43.882;2022-12-29T14:14:48;100767.72;;;-3.24;76.95
70302;BME280;57706;56.326;43.882;2022-12-29T14:17:19;100760.13;;;-3.07;77.31
70302;BME280;57706;56.326;43.882;2022-12-29T14:19:46;100773.34;;;-2.95;76.97
70302;BME280;57706;56.326;43.882;2022-12-29T14:22:34;100763.22;;;-2.98;76.29
70302;BME280;57706;56.326;43.882;2022-12-29T14:25:00;100766.28;;;-2.90;77.07
70302;BME280;57706;56.326;43.882;2022-12-29T14:29:55;100770.16;;;-3.00;75.02
70302;BME280;57706;56.326;43.882;2022-12-29T14:34:47;100776.44;;;-2.87;75.69
70302;BME280;57706;56.326;43.882;2022-12-29T14:37:30;100778.00;;;-2.83;76.07
70302;BME280;57706;56.326;43.882;2022-12-29T14:40:18;100785.22;;;-2.91;75.06
70302;BME280;57706;56.326;43.882;2022-12-29T14:42:46;100781.72;;;-2.90;75.33
70302;BME280;57706;56.326;43.882;2022-12-29T14:47:43;100785.72;;;-3.04;73.80
70302;BME280;57706;56.326;43.882;2022-12-29T14:52:47;100793.69;;;-3.30;74.23
70302;BME280;57706;56.326;43.882;2022-12-29T14:57:57;100788.03;;;-3.18;75.37
70302;BME280;57706;56.326;43.882;2022-12-29T15:00:29;100791.00;;;-3.07;75.14
70302;BME280;57706;56.326;43.882;2022-12-29T15:03:29;100777.16;;;-3.25;74.53
70302;BME280;57706;56.326;43.882;2022-12-29T15:06:15;100788.09;;;-3.20;75.35
70302;BME280;57706;56.326;43.882;2022-12-29T15:09:04;100785.06;;;-3.29;75.11
70302;BME280;57706;56.326;43.882;2022-12-29T15:16:58;100787.91;;;-3.15;75.35
70302;BME280;57706;56.326;43.882;2022-12-29T15:19:25;100788.81;;;-3.16;75.38
70302;BME280;57706;56.326;43.882;2022-12-29T15:21:53;100781.09;;;-3.16;75.60
70302;BME280;57706;56.326;43.882;2022-12-29T15:24:19;100794.59;;;-3.32;75.78
70302;BME280;57706;56.326;43.882;2022-12-29T15:26:49;100793.81;;;-3.34;75.42
70302;BME280;57706;56.326;43.882;2022-12-29T15:29:37;100784.81;;;-3.23;75.76
70302;BME280;57706;56.326;43.882;2022-12-29T15:32:18;100789.31;;;-3.08;75.63
70302;BME280;57706;56.326;43.882;2022-12-29T15:34:45;100784.31;;;-3.11;75.82
70302;BME280;57706;56.326;43.882;2022-12-29T15:37:23;100782.63;;;-3.12;75.53
70302;BME280;57706;56.326;43.882;2022-12-29T15:39:51;100791.25;;;-3.13;75.49